Parks, Arizona
Current Conditions -  °F | °C
As of 9:57 PM on Saturday 25 Oct 2014 (Local Time) from KFLG Reporting Station
Clear Clear  
Wind Chill: 46°   Ceiling: Unl
Heat Index: 46°   Visibility: 10mi
Dew Point: 39°   Wind: 0mph
Humidity: 76%   Direction: NA
Pressure: 30.28"   Gusts: NA
Location:  35.26°N, 111.95°W
Report Text: KFLG 260457Z AUTO 00000KT 10SM CLR 08/04 A3028 RMK AO2 SLP176 T00780039 TSNO
Loading
Personal Weather Stations






























Interactive Weather Map
Tropical Storm Tracking
New forecast layout! Learn more

10-Day Weather Forecast

Advertisements
Track Severe Weather on mobile